Austin, Texas
Traffic Map
Current Weather Conditions
Austin, Texas
Overcast
Overcast
75°
Feels Like: 75°
Wind Chill: 75° Ceiling: 1600
Heat Index: 75° Visibility: 10mi
Dew Point: 71° Wind: 7mph
Humidity: 87% Direction: ° ()
Pressure: 30.07in Gusts: 0mph
Raw Report DataKATT 230251Z AUTO VRB06KT 10SM OVC016 24/22 A3007 RMK AO2 RAE05B24E33 SLP172 P0001 60001 T02390217 53007
Traffic Incident Summary
Active as of:
Severity:
Category:
InformationThere was an issue retrieving the traffic information for this location. Please try a different location or try again shortly.
Advertisements
Track Severe Weather on mobile